FDX221 KMIA-KJFK
Flight info
| Callsign | FDX221 |
|---|---|
| Flight time | 2h 20m |
| Altitude | 37000 |
| Route | FOLZZ3 ALYRA PELCN Y309 FLRDA SAGGY CHIEZ Q161 KALDA Q108 SIE CAMRN5 |
| Aircraft | A306/H-SDE3FGHIRWY/LB1 |
Departure
| Time | 2026-05-07 19:01 |
|---|---|
| Airport | Miami International Airport (KMIA) |
Arrival
| Time | 2026-05-07 21:21 |
|---|---|
| Airport | John F. Kennedy International Airport (KJFK) |
| Time | Latitude | Longitude | Altitude | Speed | Heading |
|---|---|---|---|---|---|
| 2026-05-07 18:27 | 25.80515 | -80.29452 | 27 ft | 0 kts | 359° |
| 2026-05-07 18:52 | 25.80505 | -80.29451 | 27 ft | 4 kts | 356° |
| 2026-05-07 18:53 | 25.80478 | -80.29450 | 26 ft | 4 kts | 353° |
| 2026-05-07 18:53 | 25.80453 | -80.29443 | 25 ft | 4 kts | 331° |
| 2026-05-07 18:53 | 25.80434 | -80.29425 | 24 ft | 4 kts | 289° |
| 2026-05-07 18:53 | 25.80431 | -80.29413 | 25 ft | 1 kts | 268° |
| 2026-05-07 18:57 | 25.80431 | -80.29433 | 26 ft | 10 kts | 268° |
| 2026-05-07 18:57 | 25.80425 | -80.29558 | 27 ft | 18 kts | 267° |
| 2026-05-07 18:57 | 25.80420 | -80.29692 | 30 ft | 17 kts | 267° |
| 2026-05-07 18:57 | 25.80414 | -80.29821 | 29 ft | 17 kts | 267° |
| 2026-05-07 18:58 | 25.80407 | -80.29962 | 27 ft | 19 kts | 267° |
| 2026-05-07 18:58 | 25.80375 | -80.30056 | 27 ft | 11 kts | 206° |
| 2026-05-07 18:58 | 25.80296 | -80.30061 | 27 ft | 12 kts | 177° |
| 2026-05-07 18:58 | 25.80212 | -80.30056 | 29 ft | 13 kts | 177° |
| 2026-05-07 18:59 | 25.80179 | -80.30054 | 29 ft | 0 kts | 176° |
| 2026-05-07 19:00 | 25.80178 | -80.30054 | 25 ft | 1 kts | 176° |
| 2026-05-07 19:00 | 25.80170 | -80.30053 | 25 ft | 2 kts | 176° |
| 2026-05-07 19:00 | 25.80104 | -80.30037 | 25 ft | 13 kts | 138° |
| 2026-05-07 19:01 | 25.80081 | -80.29890 | 24 ft | 27 kts | 88° |
| 2026-05-07 19:01 | 25.80101 | -80.29421 | 26 ft | 100 kts | 88° |
| 2026-05-07 19:01 | 25.80141 | -80.28378 | 27 ft | 169 kts | 88° |
| 2026-05-07 19:01 | 25.80204 | -80.26946 | 663 ft | 190 kts | 91° |
| 2026-05-07 19:02 | 25.80078 | -80.25448 | 1454 ft | 208 kts | 106° |
| 2026-05-07 19:02 | 25.79498 | -80.23842 | 2218 ft | 236 kts | 116° |
| 2026-05-07 19:02 | 25.78718 | -80.22132 | 2831 ft | 258 kts | 118° |
| 2026-05-07 19:02 | 25.77869 | -80.20311 | 3654 ft | 272 kts | 118° |
| 2026-05-07 19:03 | 25.76992 | -80.18425 | 4767 ft | 276 kts | 118° |
| 2026-05-07 19:03 | 25.76085 | -80.16570 | 5944 ft | 277 kts | 119° |
| 2026-05-07 19:03 | 25.75159 | -80.14696 | 7116 ft | 276 kts | 118° |
| 2026-05-07 19:03 | 25.74437 | -80.12715 | 8183 ft | 280 kts | 102° |
| 2026-05-07 19:04 | 25.74460 | -80.10563 | 9258 ft | 283 kts | 76° |
| 2026-05-07 19:04 | 25.75337 | -80.08614 | 10322 ft | 288 kts | 54° |
| 2026-05-07 19:04 | 25.76659 | -80.06838 | 10890 ft | 310 kts | 49° |
| 2026-05-07 19:04 | 25.78158 | -80.04988 | 11243 ft | 333 kts | 48° |
| 2026-05-07 19:05 | 25.79749 | -80.03023 | 11591 ft | 353 kts | 48° |
| 2026-05-07 19:05 | 25.81417 | -80.00938 | 12047 ft | 366 kts | 48° |
| 2026-05-07 19:05 | 25.83130 | -79.98782 | 12609 ft | 374 kts | 48° |
| 2026-05-07 19:05 | 25.84859 | -79.96596 | 13264 ft | 379 kts | 48° |
| 2026-05-07 19:06 | 25.86611 | -79.94374 | 13907 ft | 384 kts | 48° |
| 2026-05-07 19:06 | 25.90145 | -79.89884 | 15067 ft | 393 kts | 48° |
| 2026-05-07 19:06 | 25.91956 | -79.87580 | 15634 ft | 397 kts | 47° |
| 2026-05-07 19:07 | 25.93778 | -79.85260 | 16222 ft | 401 kts | 47° |
| 2026-05-07 19:07 | 25.95628 | -79.82904 | 16829 ft | 405 kts | 47° |
| 2026-05-07 19:07 | 25.97479 | -79.80544 | 17431 ft | 409 kts | 47° |
| 2026-05-07 19:07 | 25.99365 | -79.78139 | 18037 ft | 412 kts | 47° |
| 2026-05-07 19:08 | 26.01255 | -79.75728 | 18587 ft | 416 kts | 46° |
| 2026-05-07 19:08 | 26.03166 | -79.73288 | 19069 ft | 420 kts | 46° |
| 2026-05-07 19:08 | 26.05096 | -79.70822 | 19527 ft | 425 kts | 46° |
| 2026-05-07 19:08 | 26.07049 | -79.68327 | 19982 ft | 429 kts | 46° |
| 2026-05-07 19:09 | 26.09014 | -79.65814 | 20428 ft | 433 kts | 46° |
| 2026-05-07 19:09 | 26.10935 | -79.63202 | 20865 ft | 438 kts | 50° |
| 2026-05-07 19:09 | 26.12730 | -79.60453 | 21287 ft | 442 kts | 52° |
| 2026-05-07 19:09 | 26.14517 | -79.57640 | 21719 ft | 446 kts | 52° |
| 2026-05-07 19:10 | 26.16318 | -79.54796 | 22135 ft | 450 kts | 52° |
| 2026-05-07 19:10 | 26.18129 | -79.51938 | 22544 ft | 453 kts | 52° |
| 2026-05-07 19:10 | 26.19949 | -79.49063 | 22884 ft | 458 kts | 52° |
| 2026-05-07 19:10 | 26.21794 | -79.46151 | 23277 ft | 462 kts | 52° |
| 2026-05-07 19:11 | 26.23629 | -79.43255 | 23654 ft | 465 kts | 52° |
| 2026-05-07 19:11 | 26.25500 | -79.40299 | 24001 ft | 467 kts | 52° |
| 2026-05-07 19:11 | 26.27423 | -79.37377 | 24345 ft | 467 kts | 48° |
| 2026-05-07 19:11 | 26.29650 | -79.34741 | 24676 ft | 465 kts | 39° |
| 2026-05-07 19:12 | 26.32206 | -79.32559 | 25009 ft | 463 kts | 30° |
| 2026-05-07 19:12 | 26.34916 | -79.30595 | 25331 ft | 465 kts | 28° |
| 2026-05-07 19:12 | 26.37655 | -79.28657 | 25655 ft | 467 kts | 28° |
| 2026-05-07 19:12 | 26.40414 | -79.26706 | 25975 ft | 469 kts | 28° |
| 2026-05-07 19:13 | 26.43174 | -79.24747 | 26277 ft | 471 kts | 28° |
| 2026-05-07 19:13 | 26.45940 | -79.22779 | 26595 ft | 473 kts | 28° |
| 2026-05-07 19:13 | 26.48694 | -79.20817 | 26864 ft | 477 kts | 28° |
| 2026-05-07 19:13 | 26.51491 | -79.18822 | 27139 ft | 479 kts | 28° |
| 2026-05-07 19:14 | 26.54344 | -79.16784 | 27427 ft | 481 kts | 28° |
| 2026-05-07 19:14 | 26.57145 | -79.14782 | 27693 ft | 483 kts | 28° |
| 2026-05-07 19:14 | 26.59983 | -79.12753 | 27959 ft | 485 kts | 28° |
| 2026-05-07 19:14 | 26.62817 | -79.10724 | 28210 ft | 487 kts | 28° |
| 2026-05-07 19:15 | 26.65682 | -79.08672 | 28515 ft | 487 kts | 28° |
| 2026-05-07 19:15 | 26.68537 | -79.06625 | 28882 ft | 486 kts | 28° |
| 2026-05-07 19:15 | 26.71379 | -79.04587 | 29288 ft | 485 kts | 28° |
| 2026-05-07 19:15 | 26.74213 | -79.02553 | 29773 ft | 481 kts | 28° |
| 2026-05-07 19:16 | 26.77032 | -79.00529 | 30152 ft | 481 kts | 28° |
| 2026-05-07 19:16 | 26.79846 | -78.98507 | 30450 ft | 481 kts | 28° |
| 2026-05-07 19:16 | 26.82667 | -78.96480 | 30773 ft | 480 kts | 28° |
| 2026-05-07 19:16 | 26.85480 | -78.94457 | 31125 ft | 480 kts | 28° |
| 2026-05-07 19:17 | 26.88285 | -78.92439 | 31472 ft | 479 kts | 28° |
| 2026-05-07 19:17 | 26.91077 | -78.90428 | 31829 ft | 478 kts | 28° |
| 2026-05-07 19:17 | 26.93842 | -78.88436 | 32191 ft | 477 kts | 28° |
| 2026-05-07 19:17 | 26.96632 | -78.86425 | 32565 ft | 476 kts | 28° |
| 2026-05-07 19:18 | 26.99400 | -78.84428 | 32938 ft | 475 kts | 28° |
| 2026-05-07 19:18 | 27.02191 | -78.82414 | 33315 ft | 474 kts | 28° |
| 2026-05-07 19:18 | 27.04958 | -78.80416 | 33650 ft | 474 kts | 28° |
| 2026-05-07 19:18 | 27.07737 | -78.78409 | 33967 ft | 475 kts | 28° |
| 2026-05-07 19:19 | 27.10494 | -78.76415 | 34304 ft | 474 kts | 28° |
| 2026-05-07 19:19 | 27.13280 | -78.74399 | 34656 ft | 472 kts | 28° |
| 2026-05-07 19:19 | 27.15995 | -78.72433 | 35005 ft | 471 kts | 28° |
| 2026-05-07 19:19 | 27.18759 | -78.70431 | 35364 ft | 469 kts | 28° |
| 2026-05-07 19:20 | 27.21533 | -78.68420 | 35724 ft | 468 kts | 28° |
| 2026-05-07 19:20 | 27.24219 | -78.66473 | 36099 ft | 465 kts | 28° |
| 2026-05-07 19:20 | 27.27003 | -78.64650 | 36469 ft | 459 kts | 21° |
| 2026-05-07 19:20 | 27.29977 | -78.63379 | 36777 ft | 451 kts | 10° |
| 2026-05-07 19:21 | 27.33026 | -78.62727 | 37013 ft | 446 kts | 3° |
| 2026-05-07 19:21 | 27.36098 | -78.62303 | 37042 ft | 441 kts | 1° |
| 2026-05-07 19:21 | 27.42125 | -78.61544 | 37045 ft | 432 kts | 1° |
| 2026-05-07 19:22 | 27.48104 | -78.60783 | 37043 ft | 431 kts | 1° |
| 2026-05-07 19:22 | 27.54067 | -78.60014 | 37043 ft | 431 kts | 1° |
| 2026-05-07 19:23 | 27.59987 | -78.59246 | 37061 ft | 431 kts | 1° |
| 2026-05-07 19:23 | 27.65979 | -78.58468 | 37043 ft | 432 kts | 1° |
| 2026-05-07 19:24 | 27.71948 | -78.57690 | 37040 ft | 432 kts | 1° |
| 2026-05-07 19:24 | 27.77926 | -78.56911 | 37040 ft | 432 kts | 1° |
| 2026-05-07 19:25 | 27.83915 | -78.56129 | 37039 ft | 432 kts | 1° |
| 2026-05-07 19:25 | 27.89839 | -78.55355 | 37053 ft | 432 kts | 1° |
| 2026-05-07 19:26 | 27.95810 | -78.54574 | 37041 ft | 432 kts | 1° |
| 2026-05-07 19:26 | 28.01761 | -78.53794 | 37041 ft | 433 kts | 1° |
| 2026-05-07 19:27 | 28.07774 | -78.53006 | 37037 ft | 433 kts | 1° |
| 2026-05-07 19:27 | 28.13750 | -78.52222 | 37037 ft | 432 kts | 1° |
| 2026-05-07 19:28 | 28.19745 | -78.51433 | 37041 ft | 433 kts | 1° |
| 2026-05-07 19:28 | 28.25729 | -78.50646 | 37033 ft | 433 kts | 1° |
| 2026-05-07 19:29 | 28.31693 | -78.49861 | 37036 ft | 433 kts | 1° |
| 2026-05-07 19:29 | 28.37668 | -78.49073 | 37036 ft | 433 kts | 1° |
| 2026-05-07 19:30 | 28.43663 | -78.48282 | 37034 ft | 433 kts | 1° |
| 2026-05-07 19:30 | 28.49658 | -78.47489 | 37038 ft | 433 kts | 0° |
| 2026-05-07 19:31 | 28.55613 | -78.46701 | 37029 ft | 433 kts | 0° |
| 2026-05-07 19:31 | 28.61611 | -78.45907 | 37029 ft | 433 kts | 0° |
| 2026-05-07 19:32 | 28.67558 | -78.45118 | 37026 ft | 433 kts | 0° |
| 2026-05-07 19:32 | 28.73573 | -78.44320 | 37025 ft | 433 kts | 0° |
| 2026-05-07 19:33 | 28.79545 | -78.43525 | 37026 ft | 433 kts | 360° |
| 2026-05-07 19:33 | 28.85538 | -78.42728 | 37025 ft | 433 kts | 360° |
| 2026-05-07 19:34 | 28.91534 | -78.41930 | 37026 ft | 433 kts | 360° |
| 2026-05-07 19:34 | 28.97513 | -78.41132 | 37026 ft | 433 kts | 360° |
| 2026-05-07 19:35 | 29.03465 | -78.40337 | 37036 ft | 433 kts | 360° |
| 2026-05-07 19:35 | 29.09443 | -78.39538 | 37018 ft | 433 kts | 359° |
| 2026-05-07 19:36 | 29.15446 | -78.38735 | 37019 ft | 433 kts | 359° |
| 2026-05-07 19:36 | 29.21433 | -78.37932 | 37020 ft | 433 kts | 359° |
| 2026-05-07 19:37 | 29.27419 | -78.37129 | 37019 ft | 433 kts | 359° |
| 2026-05-07 19:37 | 29.33409 | -78.36325 | 37021 ft | 433 kts | 359° |
| 2026-05-07 19:38 | 29.39407 | -78.35518 | 37014 ft | 434 kts | 359° |
| 2026-05-07 19:38 | 29.45373 | -78.34715 | 37008 ft | 434 kts | 359° |
| 2026-05-07 19:39 | 29.51350 | -78.34436 | 37010 ft | 425 kts | 350° |
| 2026-05-07 19:39 | 29.56288 | -78.34738 | 37008 ft | 423 kts | 348° |
| 2026-05-07 19:40 | 29.63115 | -78.35299 | 37011 ft | 424 kts | 348° |
| 2026-05-07 19:40 | 29.69017 | -78.35773 | 37009 ft | 425 kts | 348° |
| 2026-05-07 19:41 | 29.74914 | -78.36219 | 37005 ft | 425 kts | 348° |
| 2026-05-07 19:41 | 29.80817 | -78.36659 | 36797 ft | 425 kts | 348° |
| 2026-05-07 19:42 | 29.85689 | -78.37021 | 36936 ft | 416 kts | 348° |
| 2026-05-07 19:42 | 29.91393 | -78.37429 | 36998 ft | 407 kts | 348° |
| 2026-05-07 19:43 | 29.97022 | -78.37850 | 37000 ft | 407 kts | 348° |
| 2026-05-07 19:43 | 30.02676 | -78.38277 | 36998 ft | 407 kts | 348° |
| 2026-05-07 19:44 | 30.08335 | -78.38699 | 36995 ft | 407 kts | 348° |
| 2026-05-07 19:44 | 30.13985 | -78.39117 | 36994 ft | 406 kts | 348° |
| 2026-05-07 19:45 | 30.19625 | -78.39532 | 36998 ft | 406 kts | 348° |
| 2026-05-07 19:45 | 30.25317 | -78.39395 | 36999 ft | 420 kts | 0° |
| 2026-05-07 19:46 | 30.31070 | -78.37910 | 36995 ft | 427 kts | 6° |
| 2026-05-07 19:46 | 30.36818 | -78.36230 | 36990 ft | 427 kts | 5° |
| 2026-05-07 19:47 | 30.42597 | -78.34680 | 36995 ft | 425 kts | 4° |
| 2026-05-07 19:47 | 30.48383 | -78.33296 | 36990 ft | 424 kts | 2° |
| 2026-05-07 19:48 | 30.54179 | -78.31966 | 36991 ft | 424 kts | 2° |
| 2026-05-07 19:48 | 30.59967 | -78.30630 | 36988 ft | 424 kts | 2° |
| 2026-05-07 19:49 | 30.65762 | -78.29280 | 36986 ft | 425 kts | 2° |
| 2026-05-07 19:49 | 30.71561 | -78.27922 | 37022 ft | 425 kts | 2° |
| 2026-05-07 19:50 | 30.77367 | -78.26560 | 36982 ft | 425 kts | 2° |
| 2026-05-07 19:50 | 30.83130 | -78.25207 | 36976 ft | 425 kts | 2° |
| 2026-05-07 19:51 | 30.88938 | -78.23843 | 36972 ft | 425 kts | 2° |
| 2026-05-07 19:51 | 30.94731 | -78.22489 | 36982 ft | 424 kts | 2° |
| 2026-05-07 19:52 | 31.00528 | -78.21191 | 36970 ft | 424 kts | 1° |
| 2026-05-07 19:52 | 31.06346 | -78.19910 | 36971 ft | 425 kts | 1° |
| 2026-05-07 19:53 | 31.12161 | -78.18623 | 36969 ft | 425 kts | 1° |
| 2026-05-07 19:53 | 31.17977 | -78.17329 | 36968 ft | 425 kts | 1° |
| 2026-05-07 19:54 | 31.23788 | -78.16032 | 36966 ft | 425 kts | 1° |
| 2026-05-07 19:54 | 31.29577 | -78.14739 | 36969 ft | 426 kts | 1° |
| 2026-05-07 19:55 | 31.35407 | -78.13437 | 36959 ft | 426 kts | 1° |
| 2026-05-07 19:55 | 31.41231 | -78.12133 | 36954 ft | 426 kts | 1° |
| 2026-05-07 19:56 | 31.47035 | -78.10984 | 36953 ft | 423 kts | 359° |
| 2026-05-07 19:56 | 31.52856 | -78.10011 | 36983 ft | 423 kts | 358° |
| 2026-05-07 19:57 | 31.58696 | -78.09051 | 36952 ft | 424 kts | 358° |
| 2026-05-07 19:57 | 31.64530 | -78.08068 | 36949 ft | 424 kts | 358° |
| 2026-05-07 19:58 | 31.70374 | -78.07068 | 36949 ft | 424 kts | 358° |
| 2026-05-07 19:58 | 31.76213 | -78.06064 | 36943 ft | 424 kts | 358° |
| 2026-05-07 19:59 | 31.82056 | -78.05060 | 36945 ft | 424 kts | 358° |
| 2026-05-07 19:59 | 31.87900 | -78.04055 | 36937 ft | 425 kts | 358° |
| 2026-05-07 20:00 | 31.93715 | -78.03053 | 36938 ft | 425 kts | 358° |
| 2026-05-07 20:00 | 31.99578 | -78.02042 | 36938 ft | 425 kts | 358° |
| 2026-05-07 20:01 | 32.05429 | -78.01032 | 36973 ft | 425 kts | 358° |
| 2026-05-07 20:01 | 32.11291 | -78.00018 | 36933 ft | 425 kts | 358° |
| 2026-05-07 20:02 | 32.17147 | -77.99004 | 36930 ft | 425 kts | 358° |
| 2026-05-07 20:02 | 32.23001 | -77.97988 | 36931 ft | 425 kts | 358° |
| 2026-05-07 20:03 | 32.28856 | -77.96972 | 36925 ft | 425 kts | 358° |
| 2026-05-07 20:03 | 32.34677 | -77.95961 | 36926 ft | 426 kts | 358° |
| 2026-05-07 20:04 | 32.40544 | -77.94941 | 36922 ft | 426 kts | 358° |
| 2026-05-07 20:04 | 32.46414 | -77.93918 | 36923 ft | 426 kts | 358° |
| 2026-05-07 20:05 | 32.52269 | -77.92896 | 36920 ft | 425 kts | 358° |
| 2026-05-07 20:05 | 32.58133 | -77.91872 | 36935 ft | 426 kts | 358° |
| 2026-05-07 20:06 | 32.64013 | -77.90846 | 36924 ft | 428 kts | 358° |
| 2026-05-07 20:06 | 32.69914 | -77.89813 | 36897 ft | 429 kts | 358° |
| 2026-05-07 20:07 | 32.75797 | -77.88779 | 36917 ft | 429 kts | 358° |
| 2026-05-07 20:07 | 32.81707 | -77.87740 | 36893 ft | 429 kts | 358° |
| 2026-05-07 20:08 | 32.87607 | -77.86702 | 36909 ft | 429 kts | 358° |
| 2026-05-07 20:08 | 32.93522 | -77.85660 | 36905 ft | 429 kts | 358° |
| 2026-05-07 20:09 | 32.99434 | -77.84618 | 36894 ft | 429 kts | 358° |
| 2026-05-07 20:10 | 33.08254 | -77.83060 | 36900 ft | 429 kts | 358° |
| 2026-05-07 20:10 | 33.14214 | -77.82007 | 36898 ft | 432 kts | 357° |
| 2026-05-07 20:11 | 33.20171 | -77.80954 | 36894 ft | 433 kts | 357° |
| 2026-05-07 20:11 | 33.26105 | -77.79899 | 36889 ft | 433 kts | 357° |
| 2026-05-07 20:12 | 33.32064 | -77.78839 | 36888 ft | 433 kts | 357° |
| 2026-05-07 20:12 | 33.38020 | -77.77777 | 36893 ft | 433 kts | 356° |
| 2026-05-07 20:13 | 33.43979 | -77.76716 | 36888 ft | 433 kts | 356° |
| 2026-05-07 20:13 | 33.49963 | -77.75649 | 36887 ft | 433 kts | 356° |
| 2026-05-07 20:14 | 33.55934 | -77.74583 | 36886 ft | 433 kts | 356° |
| 2026-05-07 20:14 | 33.61907 | -77.73514 | 36916 ft | 433 kts | 356° |
| 2026-05-07 20:15 | 33.67832 | -77.72451 | 36887 ft | 434 kts | 356° |
| 2026-05-07 20:15 | 33.73802 | -77.71237 | 36888 ft | 436 kts | 358° |
| 2026-05-07 20:16 | 33.79786 | -77.69909 | 36883 ft | 436 kts | 358° |
| 2026-05-07 20:16 | 33.85751 | -77.68584 | 36920 ft | 435 kts | 358° |
| 2026-05-07 20:17 | 33.91722 | -77.67274 | 36881 ft | 437 kts | 357° |
| 2026-05-07 20:17 | 33.97672 | -77.65975 | 36872 ft | 437 kts | 357° |
| 2026-05-07 20:18 | 34.03657 | -77.64665 | 36873 ft | 437 kts | 357° |
| 2026-05-07 20:18 | 34.09646 | -77.63352 | 36874 ft | 437 kts | 357° |
| 2026-05-07 20:19 | 34.15653 | -77.62037 | 36872 ft | 439 kts | 356° |
| 2026-05-07 20:19 | 34.21671 | -77.60716 | 36874 ft | 440 kts | 356° |
| 2026-05-07 20:20 | 34.27691 | -77.59389 | 36874 ft | 440 kts | 356° |
| 2026-05-07 20:20 | 34.33728 | -77.58057 | 36878 ft | 438 kts | 357° |
| 2026-05-07 20:21 | 34.39696 | -77.56735 | 36880 ft | 439 kts | 356° |
| 2026-05-07 20:21 | 34.45726 | -77.55407 | 36871 ft | 440 kts | 356° |
| 2026-05-07 20:22 | 34.51764 | -77.53791 | 36863 ft | 457 kts | 6° |
| 2026-05-07 20:22 | 34.57704 | -77.50650 | 36848 ft | 469 kts | 13° |
| 2026-05-07 20:23 | 34.63539 | -77.47160 | 36846 ft | 472 kts | 14° |
| 2026-05-07 20:23 | 34.69423 | -77.43574 | 36847 ft | 474 kts | 14° |
| 2026-05-07 20:24 | 34.75332 | -77.39994 | 36839 ft | 474 kts | 13° |
| 2026-05-07 20:24 | 34.81250 | -77.36427 | 36846 ft | 474 kts | 13° |
| 2026-05-07 20:25 | 34.87166 | -77.32869 | 36861 ft | 476 kts | 13° |
| 2026-05-07 20:25 | 34.93139 | -77.29276 | 36863 ft | 479 kts | 13° |
| 2026-05-07 20:26 | 34.99124 | -77.25660 | 36854 ft | 479 kts | 13° |
| 2026-05-07 20:26 | 35.04084 | -77.22656 | 36831 ft | 479 kts | 13° |
| 2026-05-07 20:27 | 35.10043 | -77.19041 | 36850 ft | 478 kts | 13° |
| 2026-05-07 20:27 | 35.16990 | -77.14827 | 36864 ft | 479 kts | 13° |
| 2026-05-07 20:28 | 35.21996 | -77.11784 | 36868 ft | 479 kts | 13° |
| 2026-05-07 20:28 | 35.27924 | -77.08175 | 36853 ft | 479 kts | 13° |
| 2026-05-07 20:29 | 35.33885 | -77.04540 | 36844 ft | 479 kts | 13° |
| 2026-05-07 20:29 | 35.39864 | -77.00887 | 36836 ft | 479 kts | 13° |
| 2026-05-07 20:30 | 35.45826 | -76.97239 | 36828 ft | 479 kts | 13° |
| 2026-05-07 20:30 | 35.51807 | -76.93574 | 36829 ft | 479 kts | 13° |
| 2026-05-07 20:31 | 35.57731 | -76.89937 | 36825 ft | 479 kts | 12° |
| 2026-05-07 20:31 | 35.63701 | -76.86298 | 36835 ft | 478 kts | 12° |
| 2026-05-07 20:32 | 35.69675 | -76.82672 | 36872 ft | 478 kts | 13° |
| 2026-05-07 20:32 | 35.75649 | -76.79039 | 36874 ft | 478 kts | 13° |
| 2026-05-07 20:33 | 35.81579 | -76.75424 | 36879 ft | 479 kts | 12° |
| 2026-05-07 20:33 | 35.87554 | -76.71773 | 36880 ft | 479 kts | 12° |
| 2026-05-07 20:34 | 35.93508 | -76.68033 | 36882 ft | 482 kts | 14° |
| 2026-05-07 20:34 | 35.99425 | -76.64044 | 36886 ft | 484 kts | 15° |
| 2026-05-07 20:35 | 36.05319 | -76.60016 | 36889 ft | 485 kts | 15° |
| 2026-05-07 20:35 | 36.11236 | -76.55991 | 36888 ft | 485 kts | 15° |
| 2026-05-07 20:36 | 36.17155 | -76.51977 | 36889 ft | 485 kts | 15° |
| 2026-05-07 20:36 | 36.23039 | -76.47988 | 36924 ft | 485 kts | 15° |
| 2026-05-07 20:37 | 36.28961 | -76.43967 | 36888 ft | 485 kts | 15° |
| 2026-05-07 20:37 | 36.34887 | -76.39933 | 36890 ft | 485 kts | 15° |
| 2026-05-07 20:38 | 36.40784 | -76.35912 | 36889 ft | 485 kts | 15° |
| 2026-05-07 20:38 | 36.46697 | -76.31873 | 36920 ft | 486 kts | 15° |
| 2026-05-07 20:39 | 36.52627 | -76.27818 | 36902 ft | 487 kts | 15° |
| 2026-05-07 20:39 | 36.58570 | -76.23744 | 36912 ft | 487 kts | 15° |
| 2026-05-07 20:40 | 36.64497 | -76.19673 | 36895 ft | 487 kts | 15° |
| 2026-05-07 20:40 | 36.70445 | -76.15582 | 36904 ft | 489 kts | 15° |
| 2026-05-07 20:41 | 36.76416 | -76.11469 | 36895 ft | 489 kts | 15° |
| 2026-05-07 20:41 | 36.82355 | -76.07364 | 36878 ft | 488 kts | 15° |
| 2026-05-07 20:42 | 36.88295 | -76.03255 | 36878 ft | 488 kts | 15° |
| 2026-05-07 20:42 | 36.94218 | -75.99157 | 36883 ft | 491 kts | 15° |
| 2026-05-07 20:43 | 37.00226 | -75.94992 | 36880 ft | 493 kts | 15° |
| 2026-05-07 20:43 | 37.06234 | -75.90811 | 36888 ft | 493 kts | 15° |
| 2026-05-07 20:43 | 37.09276 | -75.89046 | 36893 ft | 472 kts | 4° |
| 2026-05-07 20:44 | 37.12377 | -75.87774 | 36902 ft | 467 kts | 1° |
| 2026-05-07 20:44 | 37.18599 | -75.85511 | 36896 ft | 465 kts | 359° |
| 2026-05-07 20:45 | 37.24819 | -75.83391 | 36898 ft | 464 kts | 359° |
| 2026-05-07 20:45 | 37.31054 | -75.81261 | 36896 ft | 465 kts | 359° |
| 2026-05-07 20:46 | 37.37305 | -75.79100 | 36902 ft | 467 kts | 359° |
| 2026-05-07 20:46 | 37.43578 | -75.76916 | 36901 ft | 468 kts | 360° |
| 2026-05-07 20:47 | 37.49864 | -75.74716 | 36902 ft | 468 kts | 360° |
| 2026-05-07 20:47 | 37.56104 | -75.72529 | 36907 ft | 468 kts | 360° |
| 2026-05-07 20:48 | 37.62375 | -75.70331 | 36909 ft | 468 kts | 360° |
| 2026-05-07 20:48 | 37.68660 | -75.68125 | 36906 ft | 468 kts | 360° |
| 2026-05-07 20:49 | 37.74926 | -75.65922 | 36906 ft | 468 kts | 360° |
| 2026-05-07 20:49 | 37.81210 | -75.63706 | 36905 ft | 471 kts | 1° |
| 2026-05-07 20:49 | 37.84333 | -75.62163 | 36899 ft | 494 kts | 13° |
| 2026-05-07 20:50 | 37.87343 | -75.59942 | 36910 ft | 504 kts | 19° |
| 2026-05-07 20:50 | 37.93230 | -75.54998 | 36907 ft | 510 kts | 23° |
| 2026-05-07 20:51 | 37.99052 | -75.49828 | 36979 ft | 511 kts | 23° |
| 2026-05-07 20:51 | 38.04871 | -75.44676 | 36897 ft | 513 kts | 23° |
| 2026-05-07 20:52 | 38.10817 | -75.39692 | 36893 ft | 510 kts | 21° |
| 2026-05-07 20:52 | 38.16787 | -75.34863 | 36895 ft | 509 kts | 20° |
| 2026-05-07 20:53 | 38.22785 | -75.30063 | 36894 ft | 503 kts | 15° |
| 2026-05-07 20:53 | 38.25913 | -75.28354 | 36891 ft | 478 kts | 2° |
| 2026-05-07 20:53 | 38.29079 | -75.27353 | 36891 ft | 466 kts | 356° |
| 2026-05-07 20:54 | 38.35413 | -75.25844 | 36896 ft | 460 kts | 352° |
| 2026-05-07 20:54 | 38.41708 | -75.24573 | 36974 ft | 459 kts | 352° |
| 2026-05-07 20:55 | 38.48054 | -75.23297 | 36886 ft | 462 kts | 352° |
| 2026-05-07 20:55 | 38.54355 | -75.21994 | 36890 ft | 463 kts | 352° |
| 2026-05-07 20:56 | 38.60726 | -75.20653 | 36894 ft | 463 kts | 353° |
| 2026-05-07 20:56 | 38.67114 | -75.19252 | 36893 ft | 473 kts | 358° |
| 2026-05-07 20:56 | 38.70288 | -75.17901 | 36895 ft | 497 kts | 11° |
| 2026-05-07 20:57 | 38.73371 | -75.15613 | 36903 ft | 518 kts | 24° |
| 2026-05-07 20:57 | 38.79174 | -75.10038 | 36894 ft | 523 kts | 27° |
| 2026-05-07 20:58 | 38.84956 | -75.04333 | 36947 ft | 524 kts | 27° |
| 2026-05-07 20:58 | 38.90706 | -74.98667 | 36889 ft | 525 kts | 27° |
| 2026-05-07 20:59 | 38.96508 | -74.92948 | 36811 ft | 530 kts | 27° |
| 2026-05-07 20:59 | 38.99479 | -74.90029 | 36578 ft | 545 kts | 28° |
| 2026-05-07 20:59 | 39.02533 | -74.87023 | 36348 ft | 558 kts | 28° |
| 2026-05-07 20:59 | 39.05638 | -74.83955 | 36142 ft | 566 kts | 29° |
| 2026-05-07 21:00 | 39.08762 | -74.80855 | 35896 ft | 568 kts | 29° |
| 2026-05-07 21:00 | 39.11850 | -74.77644 | 35655 ft | 572 kts | 31° |
| 2026-05-07 21:00 | 39.14902 | -74.74344 | 35414 ft | 573 kts | 32° |
| 2026-05-07 21:00 | 39.17917 | -74.71065 | 35179 ft | 574 kts | 32° |
| 2026-05-07 21:01 | 39.20967 | -74.67752 | 34942 ft | 574 kts | 32° |
| 2026-05-07 21:01 | 39.24035 | -74.64422 | 34785 ft | 574 kts | 32° |
| 2026-05-07 21:01 | 39.27097 | -74.61098 | 34235 ft | 575 kts | 32° |
| 2026-05-07 21:01 | 39.30166 | -74.57769 | 33074 ft | 580 kts | 32° |
| 2026-05-07 21:02 | 39.33244 | -74.54424 | 32400 ft | 572 kts | 32° |
| 2026-05-07 21:02 | 39.36264 | -74.51129 | 31715 ft | 564 kts | 32° |
| 2026-05-07 21:02 | 39.39255 | -74.47871 | 30902 ft | 561 kts | 33° |
| 2026-05-07 21:02 | 39.42223 | -74.44637 | 30225 ft | 555 kts | 33° |
| 2026-05-07 21:03 | 39.45168 | -74.41424 | 29548 ft | 551 kts | 33° |
| 2026-05-07 21:03 | 39.48081 | -74.38239 | 28879 ft | 542 kts | 33° |
| 2026-05-07 21:03 | 39.50886 | -74.35168 | 27854 ft | 531 kts | 34° |
| 2026-05-07 21:03 | 39.53687 | -74.32099 | 26710 ft | 523 kts | 34° |
| 2026-05-07 21:04 | 39.56437 | -74.29084 | 25707 ft | 512 kts | 34° |
| 2026-05-07 21:04 | 39.59139 | -74.26121 | 24753 ft | 503 kts | 35° |
| 2026-05-07 21:04 | 39.61781 | -74.23220 | 23776 ft | 495 kts | 35° |
| 2026-05-07 21:04 | 39.64395 | -74.20347 | 22852 ft | 484 kts | 35° |
| 2026-05-07 21:05 | 39.66945 | -74.17540 | 21860 ft | 474 kts | 35° |
| 2026-05-07 21:05 | 39.69422 | -74.14810 | 20925 ft | 462 kts | 35° |
| 2026-05-07 21:05 | 39.71856 | -74.12125 | 20035 ft | 450 kts | 35° |
| 2026-05-07 21:05 | 39.74214 | -74.09521 | 19090 ft | 442 kts | 35° |
| 2026-05-07 21:06 | 39.76523 | -74.06969 | 18323 ft | 428 kts | 36° |
| 2026-05-07 21:06 | 39.78720 | -74.04538 | 17507 ft | 416 kts | 36° |
| 2026-05-07 21:06 | 39.80891 | -74.02133 | 16831 ft | 401 kts | 35° |
| 2026-05-07 21:06 | 39.82985 | -73.99815 | 16169 ft | 386 kts | 35° |
| 2026-05-07 21:07 | 39.85121 | -73.97865 | 15653 ft | 370 kts | 24° |
| 2026-05-07 21:07 | 39.87358 | -73.96236 | 15076 ft | 369 kts | 22° |
| 2026-05-07 21:07 | 39.89630 | -73.94647 | 14463 ft | 369 kts | 22° |
| 2026-05-07 21:07 | 39.91891 | -73.93066 | 13852 ft | 369 kts | 22° |
| 2026-05-07 21:08 | 39.94146 | -73.91480 | 13173 ft | 368 kts | 22° |
| 2026-05-07 21:08 | 39.96392 | -73.89893 | 12539 ft | 365 kts | 22° |
| 2026-05-07 21:08 | 39.98609 | -73.88322 | 11941 ft | 360 kts | 22° |
| 2026-05-07 21:08 | 40.00803 | -73.86767 | 11337 ft | 356 kts | 22° |
| 2026-05-07 21:09 | 40.03030 | -73.85446 | 10734 ft | 348 kts | 15° |
| 2026-05-07 21:09 | 40.05255 | -73.84318 | 10260 ft | 339 kts | 14° |
| 2026-05-07 21:09 | 40.07411 | -73.83246 | 10041 ft | 323 kts | 13° |
| 2026-05-07 21:09 | 40.09435 | -73.82238 | 10017 ft | 312 kts | 13° |
| 2026-05-07 21:10 | 40.11483 | -73.81222 | 9956 ft | 308 kts | 13° |
| 2026-05-07 21:10 | 40.13486 | -73.80229 | 9465 ft | 306 kts | 13° |
| 2026-05-07 21:10 | 40.15471 | -73.79244 | 8955 ft | 303 kts | 14° |
| 2026-05-07 21:10 | 40.17414 | -73.78274 | 8496 ft | 296 kts | 14° |
| 2026-05-07 21:11 | 40.19290 | -73.77335 | 7749 ft | 288 kts | 15° |
| 2026-05-07 21:11 | 40.21133 | -73.76412 | 7076 ft | 278 kts | 16° |
| 2026-05-07 21:11 | 40.24670 | -73.74641 | 5569 ft | 265 kts | 17° |
| 2026-05-07 21:12 | 40.26356 | -73.73794 | 4958 ft | 258 kts | 17° |
| 2026-05-07 21:12 | 40.28026 | -73.72957 | 4553 ft | 255 kts | 17° |
| 2026-05-07 21:12 | 40.29678 | -73.72128 | 4165 ft | 253 kts | 18° |
| 2026-05-07 21:12 | 40.31321 | -73.71303 | 3772 ft | 251 kts | 18° |
| 2026-05-07 21:13 | 40.32404 | -73.70760 | 3520 ft | 250 kts | 18° |
| 2026-05-07 21:13 | 40.34545 | -73.69684 | 3011 ft | 249 kts | 18° |
| 2026-05-07 21:13 | 40.35637 | -73.69134 | 2749 ft | 248 kts | 18° |
| 2026-05-07 21:13 | 40.37766 | -73.68063 | 2239 ft | 246 kts | 19° |
| 2026-05-07 21:14 | 40.38847 | -73.67519 | 2019 ft | 249 kts | 19° |
| 2026-05-07 21:14 | 40.40484 | -73.66696 | 1914 ft | 255 kts | 19° |
| 2026-05-07 21:14 | 40.42150 | -73.65856 | 1907 ft | 257 kts | 19° |
| 2026-05-07 21:14 | 40.43819 | -73.65013 | 1906 ft | 257 kts | 19° |
| 2026-05-07 21:15 | 40.45486 | -73.64171 | 1905 ft | 258 kts | 19° |
| 2026-05-07 21:15 | 40.47143 | -73.63334 | 1903 ft | 258 kts | 19° |
| 2026-05-07 21:15 | 40.48808 | -73.62491 | 1881 ft | 241 kts | 19° |
| 2026-05-07 21:15 | 40.50273 | -73.61745 | 1892 ft | 211 kts | 19° |
| 2026-05-07 21:16 | 40.51544 | -73.61098 | 1905 ft | 188 kts | 18° |
| 2026-05-07 21:16 | 40.52733 | -73.60495 | 1891 ft | 176 kts | 17° |
| 2026-05-07 21:16 | 40.53853 | -73.59931 | 1896 ft | 173 kts | 18° |
| 2026-05-07 21:16 | 40.54960 | -73.59495 | 1889 ft | 160 kts | 4° |
| 2026-05-07 21:17 | 40.56037 | -73.59543 | 1888 ft | 154 kts | 342° |
| 2026-05-07 21:17 | 40.56973 | -73.60163 | 1891 ft | 150 kts | 318° |
| 2026-05-07 21:17 | 40.57652 | -73.61186 | 1898 ft | 148 kts | 303° |
| 2026-05-07 21:17 | 40.58202 | -73.62332 | 1900 ft | 148 kts | 300° |
| 2026-05-07 21:18 | 40.58734 | -73.63497 | 1899 ft | 149 kts | 300° |
| 2026-05-07 21:18 | 40.59270 | -73.64679 | 1902 ft | 150 kts | 300° |
| 2026-05-07 21:18 | 40.59784 | -73.65808 | 1858 ft | 140 kts | 301° |
| 2026-05-07 21:18 | 40.60289 | -73.66919 | 1688 ft | 141 kts | 301° |
| 2026-05-07 21:19 | 40.60780 | -73.67996 | 1456 ft | 132 kts | 300° |
| 2026-05-07 21:19 | 40.61227 | -73.68987 | 1295 ft | 120 kts | 302° |
| 2026-05-07 21:19 | 40.61644 | -73.69911 | 1145 ft | 117 kts | 302° |
| 2026-05-07 21:19 | 40.62059 | -73.70826 | 986 ft | 117 kts | 303° |
| 2026-05-07 21:20 | 40.62476 | -73.71746 | 814 ft | 118 kts | 303° |
| 2026-05-07 21:20 | 40.62897 | -73.72678 | 699 ft | 118 kts | 304° |
| 2026-05-07 21:20 | 40.63308 | -73.73613 | 567 ft | 120 kts | 303° |
| 2026-05-07 21:20 | 40.63743 | -73.74563 | 385 ft | 123 kts | 303° |
| 2026-05-07 21:21 | 40.64193 | -73.75542 | 211 ft | 127 kts | 304° |
| 2026-05-07 21:21 | 40.64639 | -73.76535 | 49 ft | 124 kts | 304° |
| 2026-05-07 21:21 | 40.65057 | -73.77432 | 27 ft | 99 kts | 301° |
| 2026-05-07 21:21 | 40.65275 | -73.77851 | 30 ft | 15 kts | 350° |
| 2026-05-07 21:22 | 40.65308 | -73.77842 | 28 ft | 0 kts | 16° |
| 2026-05-07 21:22 | 40.65329 | -73.77836 | 26 ft | 10 kts | 7° |
| 2026-05-07 21:22 | 40.65364 | -73.77849 | 26 ft | 0 kts | 327° |
| 2026-05-07 21:22 | 40.65381 | -73.77872 | 27 ft | 13 kts | 310° |
| 2026-05-07 21:23 | 40.65430 | -73.77976 | 27 ft | 14 kts | 299° |
| 2026-05-07 21:23 | 40.65479 | -73.78088 | 27 ft | 15 kts | 301° |
| 2026-05-07 21:23 | 40.65534 | -73.78207 | 27 ft | 16 kts | 301° |
| 2026-05-07 21:23 | 40.65592 | -73.78334 | 27 ft | 17 kts | 301° |
| 2026-05-07 21:24 | 40.65654 | -73.78469 | 31 ft | 18 kts | 301° |
| 2026-05-07 21:24 | 40.65718 | -73.78611 | 29 ft | 18 kts | 300° |
| 2026-05-07 21:24 | 40.65772 | -73.78725 | 30 ft | 5 kts | 319° |
| 2026-05-07 21:24 | 40.65819 | -73.78715 | 27 ft | 15 kts | 22° |
| 2026-05-07 21:25 | 40.65912 | -73.78648 | 28 ft | 16 kts | 28° |
| 2026-05-07 21:25 | 40.65999 | -73.78587 | 28 ft | 14 kts | 25° |
| 2026-05-07 21:25 | 40.66081 | -73.78572 | 28 ft | 8 kts | 13° |
| 2026-05-07 21:25 | 40.66123 | -73.78544 | 28 ft | 5 kts | 31° |
| 2026-05-07 21:26 | 40.66128 | -73.78540 | 28 ft | 0 kts | 31° |